createdAt,value
2018-02-13T00:00:41.758Z,18.18
2018-02-13T00:01:41.767Z,18.17
2018-02-13T00:02:41.768Z,18.15
2018-02-13T00:03:41.767Z,18.17
2018-02-13T00:04:41.809Z,18.17
2018-02-13T00:05:41.765Z,18.18
2018-02-13T00:06:41.752Z,18.19
2018-02-13T00:07:41.766Z,18.16
2018-02-13T00:08:41.798Z,18.16
2018-02-13T00:09:41.770Z,18.14
2018-02-13T00:10:42.541Z,18.13
2018-02-13T00:11:41.754Z,18.13
2018-02-13T00:12:41.806Z,18.11
2018-02-13T00:13:41.754Z,18.09
2018-02-13T00:14:41.747Z,18.09
2018-02-13T00:15:41.795Z,18.12
2018-02-13T00:16:41.754Z,18.1
2018-02-13T00:17:41.760Z,18.09
2018-02-13T00:18:41.629Z,18.09
2018-02-13T00:19:41.892Z,18.07
2018-02-13T00:20:41.900Z,18.08
2018-02-13T00:21:41.758Z,18.08
2018-02-13T00:22:41.826Z,18.07
2018-02-13T00:23:41.761Z,18.06
2018-02-13T00:24:41.766Z,18.05
2018-02-13T00:25:41.775Z,18.05
2018-02-13T00:26:41.789Z,18.07
2018-02-13T00:27:41.765Z,18.08
2018-02-13T00:28:41.751Z,18.04
2018-02-13T00:29:41.879Z,18.07
2018-02-13T00:30:41.747Z,18.05
2018-02-13T00:31:41.744Z,18.01
2018-02-13T00:32:41.752Z,18.04
2018-02-13T00:33:41.806Z,18.04
2018-02-13T00:34:41.788Z,18.02
2018-02-13T00:35:41.762Z,18.05
2018-02-13T00:36:41.743Z,18.04
2018-02-13T00:37:41.745Z,18.01
2018-02-13T00:38:41.807Z,18.01
2018-02-13T00:39:41.746Z,18.01
2018-02-13T00:40:41.754Z,17.97
2018-02-13T00:41:41.745Z,17.99
2018-02-13T00:42:41.794Z,17.98
2018-02-13T00:43:41.774Z,17.99
2018-02-13T00:44:42.056Z,17.97
2018-02-13T00:45:41.774Z,17.99
2018-02-13T00:46:41.814Z,17.97
2018-02-13T00:47:41.741Z,18.01
2018-02-13T00:48:41.801Z,17.96
2018-02-13T00:49:41.839Z,17.97
2018-02-13T00:50:41.814Z,17.96
2018-02-13T00:51:41.791Z,17.99
2018-02-13T00:52:41.804Z,17.94
2018-02-13T00:53:41.805Z,17.94
2018-02-13T00:54:41.809Z,17.93
2018-02-13T00:55:41.786Z,17.92
2018-02-13T00:56:41.768Z,17.94
2018-02-13T00:57:41.735Z,17.94
2018-02-13T00:58:41.799Z,17.95
2018-02-13T00:59:41.822Z,17.93
2018-02-13T01:00:41.820Z,17.93
2018-02-13T01:01:41.798Z,17.93
2018-02-13T01:02:41.803Z,17.95
2018-02-13T01:03:41.809Z,17.94
2018-02-13T01:04:41.811Z,17.92
2018-02-13T01:05:41.848Z,17.9
2018-02-13T01:06:41.796Z,17.91
2018-02-13T01:07:41.795Z,17.89
2018-02-13T01:08:41.800Z,17.88
2018-02-13T01:09:41.781Z,17.89
2018-02-13T01:10:41.756Z,17.91
2018-02-13T01:11:43.321Z,17.88
2018-02-13T01:12:41.748Z,17.88
2018-02-13T01:13:41.748Z,17.89
2018-02-13T01:14:41.765Z,17.87
2018-02-13T01:15:41.799Z,17.87
2018-02-13T01:16:41.759Z,17.89
2018-02-13T01:17:41.749Z,17.9
2018-02-13T01:18:41.748Z,17.86
2018-02-13T01:19:41.758Z,17.86
2018-02-13T01:20:41.736Z,17.85
2018-02-13T01:21:41.784Z,17.86
2018-02-13T01:22:41.740Z,17.85
2018-02-13T01:23:41.804Z,17.83
2018-02-13T01:24:41.779Z,17.83
2018-02-13T01:25:41.722Z,17.84
2018-02-13T01:26:41.736Z,17.82
2018-02-13T01:27:41.718Z,17.83
2018-02-13T01:28:41.764Z,17.84
2018-02-13T01:29:41.730Z,17.81
2018-02-13T01:30:41.729Z,17.8
2018-02-13T01:31:41.760Z,17.8
2018-02-13T01:32:41.723Z,17.79
2018-02-13T01:33:41.782Z,17.78
2018-02-13T01:34:41.792Z,17.79
2018-02-13T01:35:41.789Z,17.78
2018-02-13T01:36:41.815Z,17.82
2018-02-13T01:37:41.794Z,17.78
2018-02-13T01:38:41.810Z,17.76
2018-02-13T01:40:44.716Z,17.78
2018-02-13T01:41:41.762Z,17.77
2018-02-13T01:42:41.796Z,17.78
2018-02-13T01:43:41.832Z,17.76
2018-02-13T01:44:41.909Z,17.74
2018-02-13T01:45:41.789Z,17.76
2018-02-13T01:46:41.784Z,17.76
2018-02-13T01:47:41.826Z,17.71
2018-02-13T01:48:41.799Z,17.71
2018-02-13T01:49:41.850Z,17.75
2018-02-13T01:50:41.769Z,17.72
2018-02-13T01:51:41.751Z,17.75
2018-02-13T01:52:41.774Z,17.69
2018-02-13T01:53:41.771Z,17.68
2018-02-13T01:54:41.827Z,17.7
2018-02-13T01:55:41.802Z,17.71
2018-02-13T01:56:41.773Z,17.69
2018-02-13T01:57:41.758Z,17.7
2018-02-13T01:58:41.787Z,17.7
2018-02-13T02:03:35.879Z,17.69
2018-02-13T02:04:35.409Z,17.67
2018-02-13T02:05:35.449Z,17.68
2018-02-13T02:06:35.417Z,17.7
2018-02-13T02:07:35.432Z,17.7
2018-02-13T02:08:35.407Z,17.67
2018-02-13T02:09:35.419Z,17.67
2018-02-13T02:10:35.428Z,17.66
2018-02-13T02:11:35.398Z,17.68
2018-02-13T02:12:35.415Z,17.65
2018-02-13T02:13:35.415Z,17.63
2018-02-13T02:14:35.402Z,17.62
2018-02-13T02:15:35.425Z,17.62
2018-02-13T02:16:35.409Z,17.64
2018-02-13T02:17:35.418Z,17.61
2018-02-13T02:18:35.420Z,17.61
2018-02-13T02:19:35.410Z,17.61
2018-02-13T02:20:35.429Z,17.63
2018-02-13T02:21:35.414Z,17.6
2018-02-13T02:22:35.412Z,17.6
2018-02-13T02:23:35.403Z,17.6
2018-02-13T02:24:35.411Z,17.62
2018-02-13T02:25:35.442Z,17.6
2018-02-13T02:26:35.399Z,17.63
2018-02-13T02:27:35.424Z,17.63
2018-02-13T02:28:35.409Z,17.64
2018-02-13T02:29:35.408Z,17.59
2018-02-13T02:30:35.428Z,17.59
2018-02-13T02:31:35.407Z,17.61
2018-02-13T02:32:35.401Z,17.6
2018-02-13T02:33:35.421Z,17.58
2018-02-13T02:34:35.416Z,17.62
2018-02-13T02:35:35.430Z,17.64
2018-02-13T02:36:35.397Z,17.59
2018-02-13T02:37:35.417Z,17.6
2018-02-13T02:38:35.400Z,17.6
2018-02-13T02:39:35.386Z,17.57
2018-02-13T02:40:35.432Z,17.57
2018-02-13T02:41:35.389Z,17.59
2018-02-13T02:42:35.398Z,17.58
2018-02-13T02:43:35.400Z,17.56
2018-02-13T02:44:35.405Z,17.57
2018-02-13T02:45:35.424Z,17.55
2018-02-13T02:46:35.414Z,17.55
2018-02-13T02:47:35.421Z,17.54
2018-02-13T02:48:35.399Z,17.52
2018-02-13T02:49:35.397Z,17.54
2018-02-13T02:50:35.413Z,17.55
2018-02-13T02:51:35.636Z,17.49
2018-02-13T02:52:35.644Z,17.49
2018-02-13T02:53:35.617Z,17.53
2018-02-13T02:54:35.631Z,17.51
2018-02-13T02:55:35.630Z,17.52
2018-02-13T02:56:35.606Z,17.51
2018-02-13T02:57:35.620Z,17.51
2018-02-13T02:58:35.614Z,17.5
2018-02-13T02:59:35.611Z,17.48
2018-02-13T03:00:35.626Z,17.47
2018-02-13T03:01:35.612Z,17.5
2018-02-13T03:02:35.613Z,17.51
2018-02-13T03:03:35.599Z,17.5
2018-02-13T03:04:35.598Z,17.5
2018-02-13T03:05:35.603Z,17.5
2018-02-13T03:06:35.611Z,17.46
2018-02-13T03:07:35.604Z,17.45
2018-02-13T03:13:22.245Z,17.45
2018-02-13T03:14:21.810Z,17.46
2018-02-13T03:15:21.813Z,17.45
2018-02-13T03:16:21.803Z,17.46
2018-02-13T03:18:22.356Z,17.46
2018-02-13T03:19:21.822Z,17.42
2018-02-13T03:20:21.833Z,17.42
2018-02-13T03:21:21.815Z,17.41
2018-02-13T03:22:21.867Z,17.43
2018-02-13T03:23:21.821Z,17.42
2018-02-13T03:24:21.807Z,17.41
2018-02-13T03:25:21.851Z,17.42
2018-02-13T03:26:21.824Z,17.41
2018-02-13T03:27:21.856Z,17.38
2018-02-13T03:28:21.794Z,17.37
2018-02-13T03:29:21.826Z,17.39
2018-02-13T03:30:21.851Z,17.39
2018-02-13T03:31:21.851Z,17.39
2018-02-13T03:32:21.845Z,17.38
2018-02-13T03:33:21.812Z,17.4
2018-02-13T03:34:21.840Z,17.4
2018-02-13T03:35:21.863Z,17.37
2018-02-13T03:36:21.811Z,17.36
2018-02-13T03:37:21.832Z,17.37
2018-02-13T03:38:21.818Z,17.37
2018-02-13T03:39:21.844Z,17.4
2018-02-13T03:40:21.831Z,17.37
2018-02-13T03:41:21.790Z,17.35
2018-02-13T03:42:21.813Z,17.36
2018-02-13T03:43:21.853Z,17.35
2018-02-13T03:44:21.792Z,17.35
2018-02-13T03:45:21.801Z,17.36
2018-02-13T03:46:21.826Z,17.35
2018-02-13T03:47:21.793Z,17.38
2018-02-13T03:48:21.798Z,17.37
2018-02-13T03:49:21.805Z,17.36
2018-02-13T03:50:21.784Z,17.36
2018-02-13T03:51:21.816Z,17.36
2018-02-13T03:52:21.808Z,17.32
2018-02-13T03:53:21.773Z,17.34
2018-02-13T03:54:21.800Z,17.32
2018-02-13T03:55:21.790Z,17.32
2018-02-13T03:56:21.777Z,17.34
2018-02-13T03:57:21.804Z,17.33
2018-02-13T03:58:21.778Z,17.32
2018-02-13T03:59:21.794Z,17.31
2018-02-13T04:00:21.786Z,17.29
2018-02-13T04:01:21.804Z,17.32
2018-02-13T04:02:21.801Z,17.32
2018-02-13T04:03:21.802Z,17.32
2018-02-13T04:04:21.841Z,17.31
2018-02-13T04:05:21.780Z,17.32
2018-02-13T04:06:21.797Z,17.29
2018-02-13T04:07:21.783Z,17.29
2018-02-13T04:08:21.796Z,17.31
2018-02-13T04:09:21.788Z,17.29
2018-02-13T04:10:21.822Z,17.27
2018-02-13T04:11:21.768Z,17.28
2018-02-13T04:12:21.784Z,17.27
2018-02-13T04:13:21.802Z,17.25
2018-02-13T04:14:21.795Z,17.26
2018-02-13T04:15:21.783Z,17.25
2018-02-13T04:16:21.797Z,17.22
2018-02-13T04:17:21.785Z,17.24
2018-02-13T04:18:21.806Z,17.22
2018-02-13T04:19:21.788Z,17.23
2018-02-13T04:20:21.785Z,17.21
2018-02-13T04:21:21.769Z,17.26
2018-02-13T04:22:21.775Z,17.26
2018-02-13T04:23:21.792Z,17.22
2018-02-13T04:24:21.775Z,17.24
2018-02-13T04:25:21.783Z,17.23
2018-02-13T04:26:21.785Z,17.24
2018-02-13T04:27:21.770Z,17.24
2018-02-13T04:28:21.772Z,17.2
2018-02-13T04:29:21.863Z,17.22
2018-02-13T04:30:21.775Z,17.21
2018-02-13T04:31:21.792Z,17.2
2018-02-13T04:32:21.779Z,17.21
2018-02-13T04:33:21.761Z,17.21
2018-02-13T04:34:21.775Z,17.2
2018-02-13T04:35:21.787Z,17.19
2018-02-13T04:36:21.803Z,17.19
2018-02-13T04:37:21.786Z,17.2
2018-02-13T04:38:21.777Z,17.21
2018-02-13T04:39:21.805Z,17.18
2018-02-13T04:40:21.761Z,17.18
2018-02-13T04:41:21.778Z,17.18
2018-02-13T04:42:21.782Z,17.18
2018-02-13T04:43:21.775Z,17.16
2018-02-13T04:44:21.766Z,17.19
2018-02-13T04:45:21.765Z,17.18
2018-02-13T04:46:21.795Z,17.18
2018-02-13T04:47:21.785Z,17.17
2018-02-13T04:48:21.775Z,17.16
2018-02-13T04:49:21.748Z,17.16
2018-02-13T04:50:21.772Z,17.18
2018-02-13T04:51:21.776Z,17.19
2018-02-13T04:52:21.761Z,17.19
2018-02-13T04:53:21.791Z,17.2
2018-02-13T04:54:21.806Z,17.22
2018-02-13T04:55:21.855Z,17.21
2018-02-13T04:56:21.772Z,17.17
2018-02-13T04:57:21.755Z,17.17
2018-02-13T04:58:21.764Z,17.21
2018-02-13T04:59:21.783Z,17.2
2018-02-13T05:00:21.756Z,17.21
2018-02-13T05:01:21.802Z,17.21
2018-02-13T05:02:21.783Z,17.19
2018-02-13T05:03:21.788Z,17.2
2018-02-13T05:04:21.764Z,17.21
2018-02-13T05:05:21.795Z,17.21
2018-02-13T05:06:21.775Z,17.24
2018-02-13T05:07:21.754Z,17.24
2018-02-13T05:08:21.792Z,17.23
2018-02-13T05:09:21.759Z,17.25
2018-02-13T05:10:21.773Z,17.24
2018-02-13T05:11:21.778Z,17.26
2018-02-13T05:12:21.778Z,17.26
2018-02-13T05:13:21.805Z,17.26
2018-02-13T05:14:21.750Z,17.26
2018-02-13T05:15:21.799Z,17.28
2018-02-13T05:16:21.763Z,17.29
2018-02-13T05:17:21.771Z,17.28
2018-02-13T05:18:21.760Z,17.3
2018-02-13T05:19:21.807Z,17.31
2018-02-13T05:20:21.767Z,17.34
2018-02-13T05:21:21.759Z,17.33
2018-02-13T05:22:21.752Z,17.33
2018-02-13T05:23:21.758Z,17.35
2018-02-13T05:24:21.790Z,17.37
2018-02-13T05:25:21.750Z,17.36
2018-02-13T05:26:21.775Z,17.37
2018-02-13T05:28:22.390Z,17.39
2018-02-13T05:29:21.810Z,17.4
2018-02-13T05:30:21.788Z,17.4
2018-02-13T05:31:21.811Z,17.4
2018-02-13T05:32:21.833Z,17.41
2018-02-13T05:33:21.799Z,17.41
2018-02-13T05:34:21.855Z,17.42
2018-02-13T05:35:21.801Z,17.41
2018-02-13T05:36:21.811Z,17.43
2018-02-13T05:37:21.825Z,17.44
2018-02-13T05:38:21.785Z,17.43
2018-02-13T05:39:21.798Z,17.44
2018-02-13T05:40:21.788Z,17.45
2018-02-13T05:41:21.796Z,17.45
2018-02-13T05:42:21.805Z,17.46
2018-02-13T05:43:21.816Z,17.46
2018-02-13T05:44:21.791Z,17.47
2018-02-13T05:45:21.780Z,17.48
2018-02-13T05:46:21.799Z,17.5
2018-02-13T05:47:21.801Z,17.5
2018-02-13T05:48:21.820Z,17.51
2018-02-13T05:49:21.786Z,17.53
2018-02-13T05:50:21.800Z,17.54
2018-02-13T05:51:21.789Z,17.56
2018-02-13T05:52:21.802Z,17.57
2018-02-13T05:53:21.819Z,17.6
2018-02-13T05:54:21.786Z,17.59
2018-02-13T05:55:21.774Z,17.61
2018-02-13T05:56:21.785Z,17.63
2018-02-13T05:57:21.799Z,17.64
2018-02-13T05:58:27.942Z,17.67
2018-02-13T05:59:21.755Z,17.68
2018-02-13T06:00:21.746Z,17.71
2018-02-13T06:01:21.744Z,17.72
2018-02-13T06:02:21.756Z,17.72
2018-02-13T06:03:21.763Z,17.75
2018-02-13T06:04:22.086Z,17.77
2018-02-13T06:05:21.772Z,17.78
2018-02-13T06:06:21.757Z,17.79
2018-02-13T06:07:21.777Z,17.8
2018-02-13T06:08:21.761Z,17.82
2018-02-13T06:09:21.808Z,17.84
2018-02-13T06:10:21.751Z,17.85
2018-02-13T06:11:21.774Z,17.87
2018-02-13T06:12:21.767Z,17.87
2018-02-13T06:13:21.758Z,17.9
2018-02-13T06:14:21.762Z,17.9
2018-02-13T06:15:21.765Z,17.92
2018-02-13T06:16:21.779Z,17.93
2018-02-13T06:17:21.747Z,17.95
2018-02-13T06:18:21.736Z,17.96
2018-02-13T06:19:21.784Z,17.97
2018-02-13T06:20:21.754Z,17.99
2018-02-13T06:21:21.741Z,18
2018-02-13T06:22:21.768Z,18.01
2018-02-13T06:23:21.754Z,18.02
2018-02-13T06:24:21.809Z,18.02
2018-02-13T06:25:21.751Z,18.04
2018-02-13T06:26:21.747Z,18.05
2018-02-13T06:27:21.746Z,18.07
2018-02-13T06:28:21.745Z,18.08
2018-02-13T06:29:21.766Z,18.08
2018-02-13T06:30:21.759Z,18.09
2018-02-13T06:31:21.754Z,18.09
2018-02-13T06:32:21.759Z,18.12
2018-02-13T06:33:21.745Z,18.12
2018-02-13T06:34:21.808Z,18.13
2018-02-13T06:35:21.741Z,18.14
2018-02-13T06:36:21.810Z,18.16
2018-02-13T06:37:21.749Z,18.16
2018-02-13T06:38:21.746Z,18.16
2018-02-13T06:39:21.773Z,18.18
2018-02-13T06:40:21.748Z,18.18
2018-02-13T06:41:21.782Z,18.2
2018-02-13T06:42:21.751Z,18.21
2018-02-13T06:43:21.770Z,18.21
2018-02-13T06:44:21.756Z,18.24
2018-02-13T06:45:21.785Z,18.24
2018-02-13T06:46:21.760Z,18.25
2018-02-13T06:47:21.811Z,18.25
2018-02-13T06:48:21.741Z,18.26
2018-02-13T06:49:21.747Z,18.26
2018-02-13T06:50:21.773Z,18.28
2018-02-13T06:51:21.785Z,18.28
2018-02-13T06:52:21.755Z,18.3
2018-02-13T06:53:21.736Z,18.31
2018-02-13T06:54:21.733Z,18.32
2018-02-13T06:55:21.845Z,18.33
2018-02-13T06:56:22.186Z,18.34
2018-02-13T06:57:21.739Z,18.35
2018-02-13T06:58:21.736Z,18.34
2018-02-13T06:59:21.746Z,18.36
2018-02-13T07:00:21.731Z,18.37
2018-02-13T07:01:21.761Z,18.38
2018-02-13T07:02:21.743Z,18.39
2018-02-13T07:03:21.776Z,18.39
2018-02-13T07:04:21.717Z,18.39
2018-02-13T07:05:21.750Z,18.41
2018-02-13T07:06:21.773Z,18.41
2018-02-13T07:07:21.745Z,18.42
2018-02-13T07:08:21.789Z,18.43
2018-02-13T07:09:21.741Z,18.48
2018-02-13T07:10:21.732Z,18.46
2018-02-13T07:11:21.870Z,18.46
2018-02-13T07:12:21.737Z,18.45
2018-02-13T07:13:21.732Z,18.47
2018-02-13T07:14:21.733Z,18.49
2018-02-13T07:15:21.745Z,18.48
2018-02-13T07:16:21.762Z,18.49
2018-02-13T07:17:21.739Z,18.49
2018-02-13T07:18:21.734Z,18.49
2018-02-13T07:19:21.770Z,18.51
2018-02-13T07:20:21.739Z,18.52
2018-02-13T07:21:21.768Z,18.52
2018-02-13T07:22:21.791Z,18.54
2018-02-13T07:23:21.729Z,18.55
2018-02-13T07:24:21.745Z,18.55
2018-02-13T07:25:21.755Z,18.57
2018-02-13T07:26:21.755Z,18.58
2018-02-13T07:27:21.735Z,18.58
2018-02-13T07:28:21.731Z,18.6
2018-02-13T07:29:21.738Z,18.61
2018-02-13T07:30:21.721Z,18.63
2018-02-13T07:31:21.770Z,18.64
2018-02-13T07:32:21.738Z,18.65
2018-02-13T07:33:21.741Z,18.66
2018-02-13T07:34:21.731Z,18.66
2018-02-13T07:35:21.728Z,18.62
2018-02-13T07:36:21.750Z,18.64
2018-02-13T07:37:21.710Z,18.65
2018-02-13T07:38:21.726Z,18.66
2018-02-13T07:39:21.722Z,18.64
2018-02-13T07:40:21.726Z,18.66
2018-02-13T07:41:21.757Z,18.66
2018-02-13T07:42:21.760Z,18.67
2018-02-13T07:43:21.770Z,18.67
2018-02-13T07:44:21.738Z,18.68
2018-02-13T07:45:21.717Z,18.67
2018-02-13T07:46:21.757Z,18.68
2018-02-13T07:47:21.728Z,18.68
2018-02-13T07:48:21.736Z,18.68
2018-02-13T07:49:21.735Z,18.69
2018-02-13T07:50:21.715Z,18.7
2018-02-13T07:51:21.749Z,18.71
2018-02-13T07:52:21.737Z,18.7
2018-02-13T07:53:21.733Z,18.7
2018-02-13T07:54:21.724Z,18.71
2018-02-13T07:55:21.719Z,18.72
2018-02-13T07:56:21.758Z,18.71
2018-02-13T07:57:21.731Z,18.71
2018-02-13T07:58:21.744Z,18.72
2018-02-13T07:59:21.753Z,18.72
2018-02-13T08:00:21.750Z,18.73
2018-02-13T08:01:21.723Z,18.75
2018-02-13T08:02:21.756Z,18.74
2018-02-13T08:03:21.743Z,18.74
2018-02-13T08:04:21.730Z,18.74
2018-02-13T08:05:21.704Z,18.75
2018-02-13T08:06:21.731Z,18.76
2018-02-13T08:07:21.766Z,18.77
2018-02-13T08:08:21.740Z,18.77
2018-02-13T08:09:21.768Z,18.77
2018-02-13T08:10:21.745Z,18.78
2018-02-13T08:11:21.731Z,18.78
2018-02-13T08:12:21.749Z,18.8
2018-02-13T08:13:22.015Z,18.79
2018-02-13T08:14:21.740Z,18.79
2018-02-13T08:15:21.745Z,18.81
2018-02-13T08:16:21.749Z,18.81
2018-02-13T08:17:21.750Z,18.8
2018-02-13T08:18:21.884Z,18.81
2018-02-13T08:19:21.727Z,18.82
2018-02-13T08:20:21.730Z,18.83
2018-02-13T08:21:21.738Z,18.84
2018-02-13T08:22:21.742Z,18.84
2018-02-13T08:23:21.769Z,18.84
2018-02-13T08:24:21.761Z,18.86
2018-02-13T08:25:21.756Z,18.86
2018-02-13T08:26:21.732Z,18.87
2018-02-13T08:27:21.738Z,18.87
2018-02-13T08:28:21.751Z,18.88
2018-02-13T08:29:21.763Z,18.88
2018-02-13T08:30:21.734Z,18.89
2018-02-13T08:31:21.745Z,18.9
2018-02-13T08:32:21.732Z,18.9
2018-02-13T08:33:21.748Z,18.91
2018-02-13T08:34:22.007Z,18.91
2018-02-13T08:35:21.717Z,18.91
2018-02-13T08:36:21.735Z,18.92
2018-02-13T08:37:21.717Z,18.93
2018-02-13T08:38:21.717Z,18.94
2018-02-13T08:39:21.755Z,18.93
2018-02-13T08:40:21.732Z,18.95
2018-02-13T08:41:21.723Z,18.94
2018-02-13T08:42:21.697Z,18.95
2018-02-13T08:43:21.711Z,18.97
2018-02-13T08:44:21.735Z,18.98
2018-02-13T08:45:21.768Z,18.98
2018-02-13T08:46:21.722Z,18.97
2018-02-13T08:47:21.711Z,19
2018-02-13T08:48:21.708Z,18.98
2018-02-13T08:49:21.750Z,18.99
2018-02-13T08:50:21.720Z,19
2018-02-13T08:51:21.728Z,19.02
2018-02-13T08:52:21.704Z,19.01
2018-02-13T08:53:21.717Z,19.01
2018-02-13T08:54:21.766Z,19.02
2018-02-13T08:55:21.715Z,19.02
2018-02-13T08:56:21.819Z,19.03
2018-02-13T08:57:21.703Z,19.03
2018-02-13T08:58:21.731Z,19.04
2018-02-13T08:59:21.754Z,19.05
2018-02-13T09:00:21.727Z,19.05
2018-02-13T09:01:21.724Z,19.04
2018-02-13T09:02:21.738Z,19.05
2018-02-13T09:03:21.738Z,19.05
2018-02-13T09:04:21.733Z,19.06
2018-02-13T09:05:21.701Z,19.05
2018-02-13T09:06:21.728Z,19.07
2018-02-13T09:07:21.716Z,19.06
2018-02-13T09:08:21.730Z,19.07
2018-02-13T09:09:21.802Z,19.06
2018-02-13T09:10:21.697Z,19.07
2018-02-13T09:11:21.696Z,19.07
2018-02-13T09:12:21.706Z,19.07
2018-02-13T09:13:21.698Z,19.07
2018-02-13T09:14:21.765Z,19.07
2018-02-13T09:15:21.721Z,19.07
2018-02-13T09:16:21.733Z,19.08
2018-02-13T09:17:21.725Z,19.07
2018-02-13T09:18:21.725Z,19.08
2018-02-13T09:19:21.753Z,19.08
2018-02-13T09:20:21.748Z,19.07
2018-02-13T09:21:21.728Z,19.09
2018-02-13T09:22:21.729Z,19.09
2018-02-13T09:23:21.720Z,19.17
2018-02-13T09:24:21.753Z,19.13
2018-02-13T09:25:21.735Z,19.14
2018-02-13T09:26:21.715Z,19.14
2018-02-13T09:27:21.707Z,19.16
2018-02-13T09:28:21.714Z,19.15
2018-02-13T09:29:21.762Z,19.18
2018-02-13T09:30:21.729Z,19.19
2018-02-13T09:31:21.708Z,19.23
2018-02-13T09:32:21.746Z,19.22
2018-02-13T09:33:21.716Z,19.29
2018-02-13T09:34:21.717Z,19.29
2018-02-13T09:35:21.736Z,19.31
2018-02-13T09:36:21.723Z,19.33
2018-02-13T09:37:21.741Z,19.3
2018-02-13T09:38:21.718Z,19.28
2018-02-13T09:39:21.744Z,19.28
2018-02-13T09:40:21.746Z,19.32
2018-02-13T09:41:21.725Z,19.32
2018-02-13T09:42:21.710Z,19.3
2018-02-13T09:43:21.726Z,19.33
2018-02-13T09:44:21.720Z,19.34
2018-02-13T09:45:21.733Z,19.28
2018-02-13T09:46:21.702Z,19.28
2018-02-13T09:47:21.736Z,19.28
2018-02-13T09:48:21.725Z,19.28
2018-02-13T09:49:21.707Z,19.29
2018-02-13T09:50:21.733Z,19.25
2018-02-13T09:51:21.745Z,19.26
2018-02-13T09:52:21.727Z,19.24
2018-02-13T09:53:21.735Z,19.26
2018-02-13T09:54:21.780Z,19.26
2018-02-13T09:55:21.795Z,19.26
2018-02-13T09:56:21.888Z,19.25
2018-02-13T09:57:21.730Z,19.25
2018-02-13T09:58:21.745Z,19.26
2018-02-13T09:59:21.753Z,19.25
2018-02-13T10:00:21.722Z,19.24
2018-02-13T10:01:21.737Z,19.23
2018-02-13T10:02:21.818Z,19.23
2018-02-13T10:03:21.730Z,19.22
2018-02-13T10:04:21.729Z,19.22
2018-02-13T10:05:21.767Z,19.21
2018-02-13T10:06:21.722Z,19.25
2018-02-13T10:07:21.792Z,19.25
2018-02-13T10:08:21.714Z,19.23
2018-02-13T10:09:21.763Z,19.23
2018-02-13T10:10:21.743Z,19.23
2018-02-13T10:11:21.771Z,19.21
2018-02-13T10:12:21.782Z,19.2
2018-02-13T10:13:21.793Z,19.19
2018-02-13T10:14:21.747Z,19.19
2018-02-13T10:15:21.745Z,19.18
2018-02-13T10:16:22.064Z,19.17
2018-02-13T10:17:21.714Z,19.17
2018-02-13T10:18:21.784Z,19.16
2018-02-13T10:19:21.701Z,19.16
2018-02-13T10:20:21.690Z,19.14
2018-02-13T10:21:21.735Z,19.14
2018-02-13T10:22:21.769Z,19.13
2018-02-13T10:23:21.764Z,19.12
2018-02-13T10:24:21.785Z,19.11
2018-02-13T10:25:21.802Z,19.09
2018-02-13T10:26:21.820Z,19.08
2018-02-13T10:27:21.756Z,19.07
2018-02-13T10:28:21.755Z,19.07
2018-02-13T10:29:21.770Z,19.07
2018-02-13T10:30:21.784Z,19.05
2018-02-13T10:31:21.873Z,19.05
2018-02-13T10:32:21.754Z,19.05
2018-02-13T10:33:21.748Z,19.03
2018-02-13T10:34:21.694Z,19.03
2018-02-13T10:35:21.768Z,19.01
2018-02-13T10:36:21.727Z,18.99
2018-02-13T10:37:21.694Z,18.94
2018-02-13T10:38:21.811Z,18.91
2018-02-13T10:39:21.711Z,18.87
2018-02-13T10:40:21.709Z,18.85
2018-02-13T10:41:21.730Z,18.83
2018-02-13T10:42:21.799Z,18.83
2018-02-13T10:43:21.693Z,18.8
2018-02-13T10:44:21.726Z,18.79
2018-02-13T10:45:21.749Z,18.78
2018-02-13T10:46:21.887Z,18.77
2018-02-13T10:47:21.714Z,18.75
2018-02-13T10:48:21.717Z,18.74
2018-02-13T10:49:21.732Z,18.76
2018-02-13T10:50:21.734Z,18.78
2018-02-13T10:51:21.699Z,18.78
2018-02-13T10:52:21.808Z,18.78
2018-02-13T10:53:21.796Z,18.79
2018-02-13T10:54:27.850Z,18.79
2018-02-13T10:55:21.691Z,18.79
2018-02-13T10:56:21.687Z,18.79
2018-02-13T10:57:21.776Z,18.79
2018-02-13T10:58:21.684Z,18.78
2018-02-13T10:59:21.683Z,18.8
2018-02-13T11:00:21.690Z,18.79
2018-02-13T11:01:21.807Z,18.79
2018-02-13T11:02:21.821Z,18.79
2018-02-13T11:03:21.667Z,18.79
2018-02-13T11:04:21.749Z,18.79
2018-02-13T11:05:21.670Z,18.79
2018-02-13T11:06:21.753Z,18.79
2018-02-13T11:07:21.670Z,18.77
2018-02-13T11:08:21.688Z,18.76
2018-02-13T11:09:21.690Z,18.76
2018-02-13T11:10:21.756Z,18.74
2018-02-13T11:11:21.703Z,18.75
2018-02-13T11:12:21.699Z,18.71
2018-02-13T11:13:21.776Z,18.73
2018-02-13T11:14:21.687Z,18.73
2018-02-13T11:15:21.707Z,18.74
2018-02-13T11:16:21.697Z,18.74
2018-02-13T11:17:21.701Z,18.76
2018-02-13T11:18:21.741Z,18.75
2018-02-13T11:19:21.694Z,18.77
2018-02-13T11:20:21.708Z,18.75
2018-02-13T11:21:21.706Z,18.74
2018-02-13T11:22:21.680Z,18.76
2018-02-13T11:23:21.670Z,18.75
2018-02-13T11:24:21.685Z,18.75
2018-02-13T11:25:21.709Z,18.78
2018-02-13T11:26:21.714Z,18.79
2018-02-13T11:27:21.679Z,18.83
2018-02-13T11:28:21.701Z,18.84
2018-02-13T11:29:21.678Z,18.88
2018-02-13T11:30:21.707Z,18.89
2018-02-13T11:31:21.691Z,18.89
2018-02-13T11:32:21.695Z,18.9
2018-02-13T11:33:21.677Z,18.92
2018-02-13T11:34:21.696Z,18.97
2018-02-13T11:35:21.699Z,18.94
2018-02-13T11:36:21.667Z,18.95
2018-02-13T11:37:21.758Z,19
2018-02-13T11:38:21.674Z,19.02
2018-02-13T11:39:21.698Z,19.03
2018-02-13T11:40:21.687Z,19.05
2018-02-13T11:41:21.688Z,19.05
2018-02-13T11:42:21.693Z,19.04
2018-02-13T11:43:21.787Z,19.08
2018-02-13T11:44:21.685Z,19.11
2018-02-13T11:45:21.695Z,19.11
2018-02-13T11:46:21.693Z,19.1
2018-02-13T11:47:21.685Z,19.1
2018-02-13T11:48:21.671Z,19.11
2018-02-13T11:49:21.666Z,19.12
2018-02-13T11:50:21.694Z,19.12
2018-02-13T11:51:21.668Z,19.18
2018-02-13T11:52:21.736Z,19.16
2018-02-13T11:53:21.717Z,19.16
2018-02-13T11:54:21.710Z,19.17
2018-02-13T11:55:25.075Z,19.15
2018-02-13T11:56:21.697Z,19.17
2018-02-13T11:57:21.722Z,19.18
2018-02-13T11:58:21.714Z,19.18
2018-02-13T11:59:21.705Z,19.19
2018-02-13T12:00:24.811Z,19.21
2018-02-13T12:01:21.705Z,19.2
2018-02-13T12:02:22.677Z,19.2
2018-02-13T12:03:21.672Z,19.2
2018-02-13T12:04:21.887Z,19.22
2018-02-13T12:05:21.683Z,19.21
2018-02-13T12:06:21.709Z,19.19
2018-02-13T12:07:21.694Z,19.2
2018-02-13T12:08:21.713Z,19.17
2018-02-13T12:09:21.833Z,19.17
2018-02-13T12:10:21.802Z,19.15
2018-02-13T12:11:22.682Z,19.15
2018-02-13T12:12:22.650Z,19.14
2018-02-13T12:13:21.777Z,19.15
2018-02-13T12:14:22.669Z,19.16
2018-02-13T12:15:22.685Z,19.19
2018-02-13T12:16:22.658Z,19.24
2018-02-13T12:17:22.658Z,19.26
2018-02-13T12:18:21.716Z,19.28
2018-02-13T12:19:22.345Z,19.3
2018-02-13T12:20:22.675Z,19.33
2018-02-13T12:21:22.694Z,19.34
2018-02-13T12:22:22.658Z,19.36
2018-02-13T12:23:22.672Z,19.37
2018-02-13T12:24:23.087Z,19.4
2018-02-13T12:25:22.654Z,19.43
2018-02-13T12:26:22.669Z,19.43
2018-02-13T12:27:22.666Z,19.44
2018-02-13T12:28:21.800Z,19.43
2018-02-13T12:29:21.895Z,19.38
2018-02-13T12:30:22.655Z,19.23
2018-02-13T12:31:22.661Z,18.95
2018-02-13T12:32:22.655Z,18.74
2018-02-13T12:33:24.850Z,18.59
2018-02-13T12:34:21.924Z,18.46
2018-02-13T12:35:22.668Z,18.37
2018-02-13T12:36:22.661Z,18.31
2018-02-13T12:37:22.678Z,18.28
2018-02-13T12:38:22.664Z,18.41
2018-02-13T12:39:22.689Z,18.5
2018-02-13T12:40:22.464Z,18.55
2018-02-13T12:41:22.666Z,18.62
2018-02-13T12:42:22.645Z,18.66
2018-02-13T12:43:21.775Z,18.69
2018-02-13T12:44:22.653Z,18.73
2018-02-13T12:45:22.513Z,18.75
2018-02-13T12:46:22.653Z,18.78
2018-02-13T12:47:22.659Z,18.81
2018-02-13T12:48:22.674Z,18.83
2018-02-13T12:49:22.665Z,18.85
2018-02-13T12:50:22.739Z,18.87
2018-02-13T12:51:22.665Z,18.89
2018-02-13T12:52:22.660Z,18.89
2018-02-13T12:53:22.659Z,18.91
2018-02-13T12:54:22.656Z,18.92
2018-02-13T12:55:22.600Z,18.95
2018-02-13T12:56:22.684Z,18.96
2018-02-13T12:57:22.725Z,18.97
2018-02-13T12:58:21.744Z,18.98
2018-02-13T12:59:22.658Z,18.99
2018-02-13T13:00:21.921Z,19.01
2018-02-13T13:01:22.661Z,19.01
2018-02-13T13:02:22.665Z,19.02
2018-02-13T13:03:22.657Z,19.04
2018-02-13T13:04:22.645Z,19.04
2018-02-13T13:05:22.088Z,19.05
2018-02-13T13:06:22.655Z,19.07
2018-02-13T13:07:21.662Z,19.09